San Agustin de Guadalix, Spain
Current Conditions -  °F | °C
As of 6:00 AM on Monday 22 Dec 2014 (Local Time) from LETO Reporting Station
Clear Clear  
Wind Chill: 32°   Ceiling: Unl
Heat Index: 32°   Visibility: 6mi
Dew Point: 30°   Wind: 2mph
Humidity: 93%   Direction: 40°NE
Pressure: 30.45"   Gusts: NA
Location:  40.68°N, 3.62°W
Report Text: LETO 220500Z 04002KT CAVOK M00/M01 Q1031 NOSIG
Loading
Personal Weather Stations






























Interactive Weather Map New forecast layout! Learn more

10-Day Weather Forecast

Advertisements
Track Severe Weather on mobile